Quick Links (Output Below):   Max & Min Temps   /   Climate Reports   /   Zone Forecasts
River Forecasts   /   Forestry Forecasts   /   Aviation Forecasts   /   Radars   /   Features

Terminal Aerodrome Forecast (Mountain Home)

Pick a Site:
Arkadelphia | El Dorado | Fayetteville | Fort Smith | Harrison | Highfill | Hot Springs | Jonesboro
Little Rock | Monticello | Mountain Home | Pine Bluff | Texarkana

KBPK 270533Z 2706/2806 15008G15KT P6SM VCSH SCT025 BKN050
      TEMPO 2707/2711 5SM -SHRA BR BKN020
     FM271100 18008G15KT 4SM -RA BR BKN004 OVC008
     FM271800 34008G15KT 2SM RA BR VCTS BKN003 OVC008CB PROB30
      2718/2724 1/2SM -TSRA FG OVC003CB=

 Latest METARs (Observations) 
How to Decode METARs
09Z KBPK 270853Z AUTO 18009KT 10SM -RA OVC020 17/15 A3017 RMK AO2
         SLP212 P0001 60004 T01720150 55002
08Z KBPK 270753Z AUTO 18011G24KT 7SM RA BKN022 BKN029 OVC110 17/15
         A3017 RMK AO2 SLP210 P0003 T01720150
07Z KBPK 270653Z AUTO 18014G23KT 10SM -RA OVC023 18/15 A3016 RMK AO2
         PK WND 17028/0636 RAB11 SLP209 P0000 T01830150
06Z KBPK 270553Z AUTO 18014G21KT 10SM BKN023 OVC055 19/15 A3018 RMK
         AO2 SLP215 60000 T01890150 10189 20167 401890122 56006
05Z KBPK 270453Z AUTO 18011G17KT 9SM SCT025 BKN049 18/15 A3019 RMK AO2
         RAB11E27 SLP218 P0000 T01830150
04Z KBPK 270353Z AUTO 16006KT 9SM SCT022 SCT039 18/14 A3019 RMK AO2
         SLP217 T01780144
03Z KBPK 270253Z AUTO 16011G16KT 9SM OVC036 18/14 A3020 RMK AO2 SLP221
         T01780144 58003
02Z KBPK 270153Z AUTO 17009G16KT 9SM FEW020 BKN040 OVC080 17/14 A3022
         RMK AO2 SLP228 T01720144
01Z KBPK 270053Z AUTO 16007KT 10SM SCT070 OVC110 17/14 A3022 RMK AO2
         SLP230 T01720139
00Z KBPK 262353Z AUTO 14008KT 10SM OVC060 17/14 A3021 RMK AO2 SLP225
         T01720139 10178 20167 58003
***** Today's Observations (Above) *****

Back to Main Page

USA.gov is the U.S. government's official web portal to all federal, state and local government web resources and services.